White Mountain Summit Weather observations

Data are for 10 minute period ending at time listed.
 Day   Time   Solar   Ave.   Ave.  Ave.  Vector    Max.    Baro.  
  of    of     Rad.   Air    Rel.  Wind   Wind     Wind   Press.  
Year   Day            Temp.  Hum.  Speed  Dir.     Gust           
2015   (PST)   W/m2    F      %     mph   deg.      mph     mb.   
-------------------------------------------------------------------
 181    4:30  323.0    40   72.8    16    236.0    21.2   999.0 
 181    4:40  321.0    40   72.8    15    238.3    21.2   999.0 
 181    4:50  317.0    40   73.2    16    233.5    23.5   999.0 
 181    5:00  327.0    40   73.7    16    229.9    18.8   999.0 
 181    5:10  319.0    40   75.7    17    230.6    21.2   999.0 
 181    5:20  262.0    40   76.2    16    224.6    21.2   999.0 
 181    5:30  222.0    40   77.4    15    231.7    23.5   999.0 
 181    5:40  181.0    40   77.4    14    238.3    21.2   999.0 
 181    5:50  117.0    40   75.8    12    240.4    16.5   999.0 
 181    6:00  120.0    40   76.8    14    238.3    18.8   999.0 
 181    6:10  100.0    40   78.4    13    233.9    18.8   999.0 
 181    6:20   47.0    40   79.0    12    226.6    16.5   999.0 
 181    6:30   78.0    40   79.4    14    234.8    18.8   999.0 
 181    6:40   66.0    40   79.8    14    229.5    18.8   999.0 
 181    6:50   74.0    40   80.3    14    224.1    21.2   999.0 
 181    7:00   27.0    40   79.0    14    229.2    18.8   999.0 
 181    7:10    0.0    40   79.7    13    227.6    21.2   999.0 
 181    7:20    0.0    41   79.3    12    222.3    18.8   999.0 
 181    7:30    0.0    41   77.5    15    223.2    18.8   999.0 
 181    7:40    0.0    41   77.2    14    227.0    23.5   999.0 
 181    7:50    0.0    41   76.7    16    237.9    23.5   999.0 
 181    8:00    0.0    41   75.3    17    231.2    23.5   999.0 
 181    8:10    0.0    42   75.1    12    227.6    18.8   999.0 
 181    8:20   18.0    42   75.2    10    236.3    16.5   999.0 
 181    8:30   32.0    42   76.4    12    233.9    16.5   999.0 
 181    8:40   33.0    42   76.4    10    231.0    18.8   999.0 
 181    8:50   32.0    42   75.9    10    227.4    14.1   999.0 
 181    9:00   38.0    42   75.4     9    221.4    11.8   999.0 
 181    9:10   37.0    42   74.8     8    226.3    14.1   999.0 
 181    9:20   42.0    42   74.7     7    241.5    11.8   999.0 
 181    9:30   47.0    43   75.2     6    217.6     9.4   999.0 
 181    9:40   45.0    43   74.9     5    201.2     9.4   999.0 
 181    9:50   43.0    43   75.5     4    200.8     7.1   999.0 
 181   10:00   43.0    43   75.8     5    202.3     7.1   999.0 
 181   10:10   49.0    43   77.5     5    222.9     9.4   999.0 
 181   10:20   86.0    44   76.0     5    186.8     7.1   999.0 
 181   10:30   71.0    44   74.0     5    225.4     7.1   999.0 
 181   10:40   66.0    44   74.3     7    243.3     9.4   999.0 
 181   10:50   55.0    44   74.7     4    209.9     7.1   999.0 
 181   11:00   77.0    44   73.7     6    234.0     9.4   999.0 
 181   11:10   72.0    45   72.9     8    262.3    11.8   999.0 
 181   11:20   66.0    45   72.7     5    223.3     9.4   999.0 
 181   11:30   59.0    44   75.1     8    235.4    11.8   999.0 
 181   11:40  116.0    45   73.7    10    265.2    14.1   999.0 
 181   11:50  328.0    46   69.9     7    247.0    11.8   999.0 
 181   12:00  265.0    46   72.2     5    229.5     9.4   999.0 
 181   12:10  452.0    46   77.5     4    179.9     7.1   999.0 
 181   12:20  464.0    48   78.1     3    223.6     7.1   999.0 
 181   12:30  198.0    48   73.9     5    148.1     9.4   999.0 
 181   12:40   95.0    48   73.4     5    141.4     9.4   999.0 
 181   12:50   89.0    47   73.0     7    143.0    11.8   999.0 
 181   13:00  122.0    47   74.8     5    154.2     9.4   999.0 
 181   13:10  354.0    46   77.4     4    279.5     9.4   999.0 
 181   13:20  170.0    45   80.0    10    263.8    16.5   999.0 
 181   13:30    0.0    44   80.4     5    179.1    16.5   999.0 
 181   13:40   48.0    45   77.6    14    113.4    25.9   999.0 
 181   13:50  321.0    45   73.6    12    149.3    21.2   999.0 
 181   14:00  307.0    47   75.4     4    166.8     9.4   999.0 
 181   14:10  232.0    48   72.5     5    247.0     9.4   999.0 
 181   14:20  166.0    48   71.7    10    249.8    16.5   999.0 
 181   14:30  208.0    47   73.7    13    258.0    18.8   999.0 
 181   14:40  466.0    48   74.0    14    269.1    18.8   999.0 
 181   14:50  652.0    47   79.8    13    263.6    18.8   999.0 
 181   15:00  292.0    44   79.6    16    254.8    21.2   999.0 
 181   15:10    0.0    42   81.3    15    264.6    35.3   999.0 
 181   15:20    0.0    42   82.6    33    266.1    44.7   999.0 
 181   15:30    0.0    42   83.1    27    266.1    37.7   999.0 
 181   15:40    0.0    43   81.4    21    261.7    25.9   999.0 
 181   15:50    0.0    44   79.6    22    269.6    28.2   999.0 
 181   16:00    0.0    44   80.8    25    267.5    30.6   999.0 
 181   16:10    0.0    44   80.6    26    267.4    30.6   999.0 
 181   16:20    0.0    45   79.7    20    265.7    25.9   999.0 
 181   16:30    0.0    44   80.0    13    271.8    18.8   999.0 
 181   16:40    0.0    44   79.6     7    228.8    11.8   999.0 
 181   16:50    0.0    44   78.9     4    177.4     9.4   999.0 
 181   17:00    0.0    45   71.6    15    145.9    21.2   999.0 
 181   17:10    0.0    45   73.1    11    134.1    18.8   999.0 
 181   17:20    0.0    45   75.2     6    108.3    11.8   999.0 
 181   17:30    0.0    45   74.7     5    128.5     9.4   999.0 
 181   17:40    0.0    46   75.9     3     78.2     7.1   999.0 
 181   17:50   49.0    46   73.6     7    130.3    14.1   999.0 
 181   18:00   55.0    45   71.6    15    148.1    18.8   999.0 
 181   18:10   60.0    45   72.3     9    162.3    18.8   999.0 
 181   18:20   77.0    46   71.9     5    222.3     9.4   999.0 
 181   18:30  114.0    46   71.5     3    186.2     4.7   999.0 
 181   18:40  121.0    46   70.2     3    165.8     7.1   999.0 
 181   18:50  122.0    45   70.7     3    155.8     7.1   999.0 
 181   19:00  113.0    45   73.5     1    207.0     4.7   999.0 
 181   19:10   70.0    45   74.1     2     73.2     7.1   999.0 
 181   19:20    0.0    45   74.3     4     92.4     9.4   999.0 
 181   19:30    0.0    44   74.4     9    112.6    11.8   999.0 
 181   19:40    0.0    44   73.9    15    139.7    21.2   999.0 
 181   19:50    1.0    44   75.2    16    130.1    28.2   999.0 
 181   20:00    3.0    42   77.9    29    143.7    42.4   999.0 
 181   20:10    7.0    40   82.1    39    144.1    51.8   999.0 
 181   20:20    0.0    41   79.3    40    142.4    49.4   999.0 
 181   20:30    0.0    41   77.3    33    145.0    40.0   999.0 
 181   20:40    0.0    41   78.3    38    151.3    47.1   999.0 
 181   20:50  147.0    40   80.9    28    151.6    42.4   999.0 
 181   21:00  122.0    40   72.9    15    162.4    30.6   999.0 
 181   21:10   25.0    42   66.9    13    170.3    23.5   999.0 
 181   21:20   22.0    42   70.3    23    114.9    30.6   999.0 
 181   21:30   17.0    42   72.0    27    137.3    33.0   999.0 
 181   21:40    0.0    42   76.0    24    155.1    33.0   999.0 
 181   21:50    0.0    42   76.4    21    155.9    23.5   999.0 
 181   22:00    0.0    42   77.4    23    150.5    25.9   999.0 
 181   22:10    0.0    42   77.3    23    137.4    25.9   999.0 
 181   22:20    0.0    41   76.7    20    138.3    23.5   999.0 
 181   22:30    0.0    42   77.9    19    144.4    23.5   999.0 
 181   22:40    0.0    42   76.5    14    148.4    18.8   999.0 
 181   22:50    0.0    42   78.3    13    160.0    16.5   999.0 
 181   23:00    0.0    42   78.0    14    161.2    18.8   999.0 
 181   23:10    0.0    42   77.5    14    164.1    18.8   999.0 
 181   23:20    0.0    42   77.4    14    157.5    18.8   999.0 
 181   23:30    0.0    42   78.3    16    148.7    18.8   999.0 
 181   23:40    0.0    42   78.3    18    135.8    21.2   999.0 
 181   23:50    0.0    42   76.7    17    118.8    21.2   999.0 
 182    0:00    0.0    42   75.4    15    115.7    16.5   999.0 
 182    0:10    0.0    42   74.1    13    110.6    16.5   999.0 
 182    0:20    0.0    42   72.8     6     89.8    11.8   999.0 
 182    0:30    0.0    42   73.9     8     93.1    14.1   999.0 
 182    0:40    0.0    42   74.7     7     77.3    11.8   999.0 
 182    0:50    0.0    41   75.4     7     76.5     9.4   999.0 
 182    1:00    0.0    41   75.7     6     76.1     9.4   999.0 
 182    1:10    0.0    41   76.3     7     74.5     9.4   999.0 
 182    1:20    0.0    41   76.7    10     67.4    11.8   999.0 
 182    1:30    0.0    41   76.8    11     59.6    14.1   999.0 
 182    1:40    0.0    41   76.8    11     61.1    11.8   999.0 
 182    1:50    0.0    41   76.3    11     63.2    14.1   999.0 
 182    2:00    0.0    41   76.2    12     64.2    14.1   999.0 
 182    2:10    0.0    41   75.8     9     74.9    14.1   999.0 
 182    2:20    0.0    41   75.8    10     79.4    14.1   999.0 
 182    2:30    0.0    41   75.0    11     86.4    14.1   999.0 
 182    2:40    0.0    41   75.6     9     77.0    14.1   999.0 
 182    2:50    0.0    41   76.1     6     84.4    11.8   999.0 
 182    3:00    0.0    41   75.8     9    100.4    11.8   999.0 
 182    3:10    0.0    42   76.2     7    103.5    11.8   999.0 
 182    3:20    0.0    42   75.3     7     89.7    14.1   999.0 
 182    3:30    0.0    41   74.6     8     91.0    14.1   999.0 
 182    3:40    0.0    41   74.7     7     77.4     9.4   999.0 
 182    3:50    0.0    41   75.1     9     74.5    11.8   999.0 
 182    4:00    0.0    41   75.7     9     75.3    11.8   999.0 
 182    4:10    0.0    40   76.7    12     65.8    14.1   999.0 
 182    4:20    0.0    40   77.2    12     59.5    14.1   999.0 

Return to White Mountain graphs page.


Western Regional Climate Center,wrcc@dri.edu